WAPP

Pattimura , Ambon Airport

Ambon, Indonesia
TAF WAPP 171700Z 1718/1818 35006KT 9999 SCT018 BECMG 1722/1724 18008KT
Issued Valid From Valid To
Nov-17 @ 17:00 UTC
(5 hours ago)
Nov-17 @ 18:00 UTC
(4 hours ago)
Nov-18 @ 18:00 UTC
(in 20 hours)
Expired Click to View Nov-17 @ 18:00 to Nov-17 @ 22:00
TAF WAPP 171700Z 1718/1818 35006KT 9999 SCT018
Wind Visibility Clouds
350° at 6 knots 10,000+ meters
  • Scattered at 1,800' AGL
Becoming Nov-17 @ 22:00 to Nov-18 @ 18:00
BECMG 1722/1724 18008KT
Wind Visibility Clouds
180° at 8 knots 10,000+ meters
  • Scattered at 1,800' AGL
TAF WAPP 171700Z 1718/1818 35006KT 9999 SCT018 BECMG 1722/1724 18008KT
Issued Nov-17 @ 17:00 UTC
(5 hours ago)
Valid From Nov-17 @ 18:00 UTC
(4 hours ago)
Valid To Nov-18 @ 18:00 UTC
(in 20 hours)
Nov-17 @ 18:00 - Nov-17 @ 22:00
Wind Visibility
350° at 6 knots 10,000+ meters
Clouds
  • Scattered at 1,800' AGL
Becoming Nov-17 @ 22:00 - Nov-18 @ 18:00
Wind Visibility
180° at 8 knots 10,000+ meters
Clouds
  • Scattered at 1,800' AGL